Time;durP1;ratioP1;P1;durP2;ratioP2;P2;SDS_P1;SDS_P2;PMS_P1;PMS_P2;Temp;Humidity;BMP_temperature;BMP_pressure;BME280_temperature;BME280_humidity;BME280_pressure;Samples;Min_cycle;Max_cycle;Signal;HPM_P1;HPM_P2
2022/06/12 00:01:22;;;;;;;5.97;2.05;;;;;;;;;;5070778;27;93154;-79
2022/06/12 00:03:48;;;;;;;8.18;2.00;;;;;;;;;;5062086;27;93419;-77
2022/06/12 00:06:16;;;;;;;4.43;1.30;;;;;;;;;;5068056;27;92550;-79
2022/06/12 00:08:42;;;;;;;8.13;2.33;;;;;;;;;;5056951;27;93205;-79
2022/06/12 00:11:13;;;;;;;7.22;1.67;;;;;;;;;;5069558;27;93382;-78
2022/06/12 00:13:41;;;;;;;9.98;2.10;;;;;;;;;;5062029;27;92942;-78
2022/06/12 00:16:08;;;;;;;7.28;2.00;;;;;;;;;;5051950;27;95874;-79
2022/06/12 00:18:35;;;;;;;7.97;1.90;;;;;;;;;;5069025;27;92749;-79
2022/06/12 00:21:10;;;;;;;6.63;1.85;;;;;;;;;;5050388;27;93276;-79
2022/06/12 00:23:45;;;;;;;7.03;2.15;;;;;;;;;;5055870;27;93994;-78
2022/06/12 00:26:13;;;;;;;6.82;2.13;;;;;;;;;;5061233;27;92521;-79
2022/06/12 00:28:39;;;;;;;10.10;1.92;;;;;;;;;;5044176;27;93168;-78
2022/06/12 00:31:06;;;;;;;11.55;2.47;;;;;;;;;;5059177;27;93182;-79
2022/06/12 00:33:33;;;;;;;6.60;1.83;;;;;;;;;;5058771;27;92114;-79
2022/06/12 00:35:59;;;;;;;6.47;1.40;;;;;;;;;;5055646;27;93105;-79
2022/06/12 00:38:26;;;;;;;11.50;2.17;;;;;;;;;;5057689;27;92436;-79
2022/06/12 00:40:52;;;;;;;9.07;1.90;;;;;;;;;;5062761;27;94916;-79
2022/06/12 00:43:18;;;;;;;12.00;2.10;;;;;;;;;;5057122;27;93553;-78
2022/06/12 00:45:47;;;;;;;9.18;1.80;;;;;;;;;;5041501;27;93616;-78
2022/06/12 00:48:19;;;;;;;9.27;2.67;;;;;;;;;;5061113;27;94230;-79
2022/06/12 00:51:11;;;;;;;7.05;2.08;;;;;;;;;;5054250;27;93459;-79
2022/06/12 00:53:42;;;;;;;7.80;2.08;;;;;;;;;;5065134;27;92520;-78
2022/06/12 00:56:08;;;;;;;;;;;;;;;;;;5046683;27;92974;-79
2022/06/12 00:58:37;;;;;;;10.32;2.10;;;;;;;;;;5057443;27;118283;-78
2022/06/12 01:01:04;;;;;;;12.38;2.53;;;;;;;;;;5055605;27;93976;-76
2022/06/12 01:03:31;;;;;;;9.73;2.17;;;;;;;;;;5034780;27;93898;-79
2022/06/12 01:08:42;;;;;;;16.48;2.38;;;;;;;;;;5058331;27;95490;-79
2022/06/12 01:11:10;;;;;;;13.15;2.63;;;;;;;;;;5075538;27;93445;-79
2022/06/12 01:13:39;;;;;;;11.32;2.35;;;;;;;;;;5053174;27;92528;-79
2022/06/12 01:16:07;;;;;;;9.75;2.90;;;;;;;;;;5058588;27;93252;-79
2022/06/12 01:18:36;;;;;;;12.55;2.72;;;;;;;;;;5057645;27;93424;-79
2022/06/12 01:21:08;;;;;;;11.10;2.53;;;;;;;;;;5053333;27;93209;-79
2022/06/12 01:23:59;;;;;;;18.25;2.58;;;;;;;;;;5054488;27;92721;-79
2022/06/12 01:26:25;;;;;;;11.52;2.60;;;;;;;;;;5053108;27;92474;-79
2022/06/12 01:28:57;;;;;;;22.08;2.83;;;;;;;;;;5058370;27;93173;-79
2022/06/12 01:31:28;;;;;;;20.48;2.92;;;;;;;;;;5053542;27;95680;-79
2022/06/12 01:34:11;;;;;;;14.13;2.63;;;;;;;;;;5051698;27;92492;-78
2022/06/12 01:36:43;;;;;;;11.80;2.53;;;;;;;;;;5047493;27;94338;-78
2022/06/12 01:39:18;;;;;;;12.18;2.85;;;;;;;;;;5065800;27;93368;-78
2022/06/12 01:41:52;;;;;;;14.07;2.53;;;;;;;;;;5067750;27;94351;-78
2022/06/12 01:44:38;;;;;;;17.90;2.88;;;;;;;;;;5042798;27;94505;-79
2022/06/12 01:47:14;;;;;;;12.70;2.03;;;;;;;;;;5052416;27;93251;-79
2022/06/12 01:49:45;;;;;;;9.77;2.33;;;;;;;;;;5046264;27;92959;-78
2022/06/12 01:52:22;;;;;;;14.65;2.55;;;;;;;;;;5057984;27;93591;-79
2022/06/12 01:54:59;;;;;;;15.88;3.03;;;;;;;;;;5051914;27;93094;-79
2022/06/12 01:57:34;;;;;;;19.23;3.05;;;;;;;;;;5053916;27;94864;-79
2022/06/12 02:00:03;;;;;;;13.63;2.50;;;;;;;;;;5053475;27;93351;-78
2022/06/12 02:02:35;;;;;;;18.70;2.85;;;;;;;;;;5056815;27;92870;-78
2022/06/12 02:05:22;;;;;;;16.90;3.20;;;;;;;;;;5054763;27;94572;-79
2022/06/12 02:08:03;;;;;;;17.50;3.33;;;;;;;;;;5038623;27;93166;-78
2022/06/12 02:10:32;;;;;;;9.40;2.60;;;;;;;;;;5061178;27;93244;-79
2022/06/12 02:13:14;;;;;;;12.15;3.03;;;;;;;;;;5036407;27;93637;-77
2022/06/12 02:15:43;;;;;;;14.60;2.70;;;;;;;;;;5052053;27;92986;-79
2022/06/12 02:18:17;;;;;;;14.75;3.65;;;;;;;;;;5056630;27;92713;-79
2022/06/12 02:20:46;;;;;;;15.35;3.80;;;;;;;;;;5076137;27;93867;-77
2022/06/12 02:23:16;;;;;;;13.23;2.90;;;;;;;;;;5092158;27;94922;-78
2022/06/12 02:25:44;;;;;;;15.05;2.92;;;;;;;;;;5080541;27;95622;-77
2022/06/12 02:28:18;;;;;;;14.63;2.80;;;;;;;;;;5073907;27;92417;-76
2022/06/12 02:30:48;;;;;;;10.45;2.50;;;;;;;;;;5082791;27;92808;-77
2022/06/12 02:33:22;;;;;;;16.67;2.45;;;;;;;;;;5075577;27;93655;-74
2022/06/12 02:35:50;;;;;;;19.25;3.20;;;;;;;;;;5069288;27;92396;-77
2022/06/12 02:38:23;;;;;;;14.98;3.53;;;;;;;;;;5091716;27;95107;-77
2022/06/12 02:41:09;;;;;;;17.30;4.82;;;;;;;;;;5093640;27;92352;-76
2022/06/12 02:43:38;;;;;;;14.90;3.00;;;;;;;;;;5064469;27;92455;-77
2022/06/12 02:46:07;;;;;;;19.67;3.72;;;;;;;;;;5077857;27;93324;-77
2022/06/12 02:48:34;;;;;;;16.50;3.08;;;;;;;;;;5092414;27;98397;-77
2022/06/12 02:51:13;;;;;;;14.82;2.95;;;;;;;;;;5081461;27;95694;-77
2022/06/12 02:54:00;;;;;;;13.93;3.10;;;;;;;;;;5054933;27;94733;-75
2022/06/12 02:56:36;;;;;;;18.20;3.40;;;;;;;;;;5044980;27;94202;-77
2022/06/12 02:59:08;;;;;;;14.65;3.63;;;;;;;;;;5080580;27;93171;-77
2022/06/12 03:01:38;;;;;;;13.40;3.10;;;;;;;;;;5073033;27;93694;-77
2022/06/12 03:04:11;;;;;;;17.58;3.42;;;;;;;;;;5078624;27;92563;-77
2022/06/12 03:06:40;;;;;;;20.63;3.70;;;;;;;;;;5080553;27;94304;-76
2022/06/12 03:09:07;;;;;;;25.40;3.50;;;;;;;;;;5057846;27;93451;-75
2022/06/12 03:11:36;;;;;;;19.73;3.58;;;;;;;;;;5077571;27;92993;-77
2022/06/12 03:14:08;;;;;;;16.88;4.10;;;;;;;;;;5071387;27;96017;-77
2022/06/12 03:16:37;;;;;;;25.20;3.97;;;;;;;;;;5073139;27;92504;-77
2022/06/12 03:19:08;;;;;;;12.50;3.17;;;;;;;;;;5073956;27;93142;-77
2022/06/12 03:21:47;;;;;;;13.75;2.72;;;;;;;;;;5065823;27;93571;-77
2022/06/12 03:24:16;;;;;;;16.60;3.78;;;;;;;;;;5070394;27;92349;-77
2022/06/12 03:26:42;;;;;;;17.40;3.72;;;;;;;;;;5051952;27;93655;-77
2022/06/12 03:29:09;;;;;;;22.05;4.28;;;;;;;;;;5065777;27;93498;-77
2022/06/12 03:31:42;;;;;;;25.33;3.78;;;;;;;;;;5067063;27;91832;-77
2022/06/12 03:34:26;;;;;;;11.80;3.15;;;;;;;;;;5056854;27;92473;-77
2022/06/12 03:36:57;;;;;;;21.10;3.72;;;;;;;;;;5063666;27;94268;-77
2022/06/12 03:39:29;;;;;;;18.35;3.85;;;;;;;;;;5064646;27;94861;-77
2022/06/12 03:42:12;;;;;;;19.58;4.18;;;;;;;;;;5045679;27;93580;-76
2022/06/12 03:44:44;;;;;;;15.27;3.22;;;;;;;;;;5053490;27;92656;-77
2022/06/12 03:47:16;;;;;;;18.83;4.13;;;;;;;;;;5052059;27;93027;-77
2022/06/12 03:49:52;;;;;;;17.25;3.85;;;;;;;;;;5052932;27;93978;-77
2022/06/12 03:52:25;;;;;;;20.50;3.63;;;;;;;;;;5061138;27;92713;-77
2022/06/12 03:54:55;;;;;;;18.05;3.85;;;;;;;;;;5069368;27;93167;-77
2022/06/12 03:57:54;;;;;;;21.98;3.33;;;;;;;;;;5041940;27;92470;-77
2022/06/12 04:00:20;;;;;;;20.48;3.53;;;;;;;;;;5004095;27;93915;-76
2022/06/12 04:03:07;;;;;;;17.90;3.42;;;;;;;;;;5061176;27;93289;-77
2022/06/12 04:05:36;;;;;;;20.63;4.00;;;;;;;;;;5065323;27;94852;-76
2022/06/12 04:08:04;;;;;;;13.40;3.35;;;;;;;;;;5066280;27;95609;-76
2022/06/12 04:10:32;;;;;;;21.65;4.00;;;;;;;;;;5054242;27;93569;-77
2022/06/12 04:12:58;;;;;;;20.48;4.05;;;;;;;;;;5054635;27;92565;-77
2022/06/12 04:15:28;;;;;;;17.80;3.67;;;;;;;;;;5054452;27;92828;-77
2022/06/12 04:17:56;;;;;;;16.73;3.50;;;;;;;;;;5062129;27;93402;-77
2022/06/12 04:20:25;;;;;;;15.60;3.47;;;;;;;;;;5041526;27;93191;-77
2022/06/12 04:23:00;;;;;;;27.42;4.35;;;;;;;;;;5057396;27;93776;-77
2022/06/12 04:25:29;;;;;;;19.23;4.03;;;;;;;;;;5073534;27;93290;-77
2022/06/12 04:27:56;;;;;;;21.95;4.22;;;;;;;;;;5074736;27;95480;-77
2022/06/12 04:30:32;;;;;;;15.15;4.22;;;;;;;;;;5072575;27;96009;-77
2022/06/12 04:33:17;;;;;;;17.20;3.75;;;;;;;;;;5071226;27;94170;-77
2022/06/12 04:35:49;;;;;;;15.77;3.00;;;;;;;;;;5083361;27;92503;-76
2022/06/12 04:38:16;;;;;;;15.32;3.40;;;;;;;;;;5060850;27;94472;-75
2022/06/12 04:40:43;;;;;;;25.27;4.20;;;;;;;;;;5086072;27;92610;-77
2022/06/12 04:43:09;;;;;;;23.33;3.90;;;;;;;;;;5074161;27;95695;-77
2022/06/12 04:45:37;;;;;;;17.15;4.10;;;;;;;;;;5086768;27;92925;-77
2022/06/12 04:48:04;;;;;;;15.93;3.55;;;;;;;;;;5085962;27;94240;-77
2022/06/12 04:50:30;;;;;;;18.52;4.20;;;;;;;;;;5080800;27;93210;-76
2022/06/12 04:52:57;;;;;;;26.52;4.25;;;;;;;;;;5058275;27;92474;-77
2022/06/12 04:55:23;;;;;;;12.82;3.40;;;;;;;;;;5079159;27;95201;-75
2022/06/12 04:57:49;;;;;;;19.65;3.83;;;;;;;;;;5074771;27;93340;-77
2022/06/12 05:00:16;;;;;;;20.90;3.72;;;;;;;;;;5061360;27;92594;-77
2022/06/12 05:02:42;;;;;;;22.20;4.13;;;;;;;;;;5094476;27;92882;-77
2022/06/12 05:05:09;;;;;;;17.65;3.60;;;;;;;;;;5089600;27;92556;-77
2022/06/12 05:07:35;;;;;;;18.45;3.80;;;;;;;;;;5093228;27;93145;-75
2022/06/12 05:10:02;;;;;;;18.35;4.15;;;;;;;;;;5088642;27;93527;-76
2022/06/12 05:12:28;;;;;;;22.15;3.95;;;;;;;;;;5079200;27;91842;-75
2022/06/12 05:14:55;;;;;;;18.77;3.72;;;;;;;;;;5092303;27;93905;-77
2022/06/12 05:17:22;;;;;;;18.73;3.95;;;;;;;;;;5077732;27;94405;-77
2022/06/12 05:19:49;;;;;;;23.30;4.80;;;;;;;;;;5088141;27;94829;-77
2022/06/12 05:22:15;;;;;;;23.20;4.47;;;;;;;;;;5088824;27;95570;-77
2022/06/12 05:24:43;;;;;;;18.85;5.38;;;;;;;;;;5088901;27;93155;-77
2022/06/12 05:27:13;;;;;;;27.58;4.38;;;;;;;;;;5073244;27;93473;-77
2022/06/12 05:29:40;;;;;;;17.73;3.20;;;;;;;;;;5078391;27;93348;-77
2022/06/12 05:32:08;;;;;;;20.00;4.38;;;;;;;;;;5082883;27;92461;-77
2022/06/12 05:34:34;;;;;;;22.02;3.25;;;;;;;;;;5077673;27;95232;-77
2022/06/12 05:37:01;;;;;;;17.60;3.63;;;;;;;;;;5082331;27;92583;-77
2022/06/12 05:39:27;;;;;;;22.05;4.18;;;;;;;;;;5088246;27;92972;-77
2022/06/12 05:41:54;;;;;;;24.77;3.90;;;;;;;;;;5078520;27;93358;-77
2022/06/12 05:44:20;;;;;;;23.75;4.25;;;;;;;;;;5070284;27;96810;-72
2022/06/12 05:46:54;;;;;;;19.88;3.97;;;;;;;;;;5067794;27;92652;-80
2022/06/12 05:49:20;;;;;;;30.98;4.50;;;;;;;;;;5069043;27;93405;-78
2022/06/12 05:51:46;;;;;;;20.55;4.30;;;;;;;;;;5080708;27;92531;-79
2022/06/12 05:54:13;;;;;;;17.88;3.85;;;;;;;;;;5081493;27;93135;-78
2022/06/12 05:56:39;;;;;;;22.27;4.00;;;;;;;;;;5087800;27;93584;-79
2022/06/12 05:59:05;;;;;;;25.67;4.50;;;;;;;;;;5076385;27;92497;-79
2022/06/12 06:01:32;;;;;;;18.30;4.40;;;;;;;;;;5074461;27;93036;-79
2022/06/12 06:03:58;;;;;;;18.67;4.70;;;;;;;;;;5081655;27;94417;-77
2022/06/12 06:06:29;;;;;;;21.27;3.85;;;;;;;;;;5078288;27;92474;-79
2022/06/12 06:08:59;;;;;;;18.63;3.80;;;;;;;;;;5071789;27;95813;-79
2022/06/12 06:11:26;;;;;;;26.98;4.32;;;;;;;;;;5074206;27;92515;-79
2022/06/12 06:13:53;;;;;;;25.40;5.15;;;;;;;;;;5087821;27;93259;-78
2022/06/12 06:16:20;;;;;;;16.60;3.50;;;;;;;;;;5080864;27;93227;-79
2022/06/12 06:18:47;;;;;;;17.92;4.00;;;;;;;;;;5073264;27;92576;-78
2022/06/12 06:21:15;;;;;;;22.48;4.63;;;;;;;;;;5062895;27;93058;-77
2022/06/12 06:23:46;;;;;;;30.30;3.83;;;;;;;;;;5049653;27;93636;-75
2022/06/12 06:26:13;;;;;;;19.65;4.55;;;;;;;;;;5047756;27;91828;-71
2022/06/12 06:28:39;;;;;;;24.98;4.82;;;;;;;;;;5050821;27;94192;-78
2022/06/12 06:31:06;;;;;;;26.42;3.92;;;;;;;;;;5047621;27;92520;-75
2022/06/12 06:33:33;;;;;;;22.90;4.72;;;;;;;;;;5057098;27;96444;-74
2022/06/12 06:36:06;;;;;;;20.02;5.15;;;;;;;;;;5063336;27;94437;-79
2022/06/12 06:38:32;;;;;;;17.30;3.72;;;;;;;;;;5050806;27;92583;-78
2022/06/12 06:40:58;;;;;;;21.65;4.05;;;;;;;;;;5054732;27;92839;-77
2022/06/12 06:43:25;;;;;;;21.70;4.05;;;;;;;;;;5054792;27;93389;-75
2022/06/12 06:48:36;;;;;;;18.25;3.75;;;;;;;;;;5061481;27;93253;-73
2022/06/12 06:51:03;;;;;;;21.85;4.20;;;;;;;;;;5067456;27;93768;-75
2022/06/12 06:53:29;;;;;;;17.55;4.25;;;;;;;;;;5072136;27;92455;-78
2022/06/12 06:55:55;;;;;;;16.05;3.83;;;;;;;;;;5059042;27;93522;-76
2022/06/12 06:58:23;;;;;;;23.75;3.92;;;;;;;;;;5062702;27;94835;-75
2022/06/12 07:00:50;;;;;;;15.13;3.70;;;;;;;;;;5053711;27;95643;-74
2022/06/12 07:03:16;;;;;;;20.38;4.38;;;;;;;;;;5039762;27;93540;-76
2022/06/12 07:05:44;;;;;;;13.50;3.25;;;;;;;;;;5063563;27;92522;-75
2022/06/12 07:08:11;;;;;;;18.48;4.45;;;;;;;;;;5044850;27;92463;-76
2022/06/12 07:10:39;;;;;;;14.57;3.45;;;;;;;;;;5056197;27;93240;-72
2022/06/12 07:13:06;;;;;;;20.17;4.05;;;;;;;;;;5074802;27;92480;-77
2022/06/12 07:15:33;;;;;;;21.38;4.30;;;;;;;;;;5068370;27;92824;-77
2022/06/12 07:17:59;;;;;;;22.85;3.83;;;;;;;;;;5064308;27;92611;-79
2022/06/12 07:20:28;;;;;;;21.85;3.92;;;;;;;;;;5034409;27;92929;-75
2022/06/12 07:22:54;;;;;;;22.40;4.05;;;;;;;;;;5060413;27;95884;-76
2022/06/12 07:25:21;;;;;;;20.20;3.88;;;;;;;;;;5055526;27;92479;-75
2022/06/12 07:27:47;;;;;;;26.83;4.65;;;;;;;;;;5072519;27;93038;-74
2022/06/12 07:30:15;;;;;;;29.23;4.78;;;;;;;;;;5068566;27;94443;-78
2022/06/12 07:32:41;;;;;;;19.85;3.50;;;;;;;;;;5061747;27;92945;-74
2022/06/12 07:35:08;;;;;;;15.77;4.13;;;;;;;;;;5075154;27;93663;-75
2022/06/12 07:37:35;;;;;;;21.60;3.70;;;;;;;;;;5054751;27;92459;-74
2022/06/12 07:40:03;;;;;;;19.17;4.90;;;;;;;;;;5055534;27;93245;-77
2022/06/12 07:42:30;;;;;;;20.23;3.63;;;;;;;;;;5050181;27;93317;-77
2022/06/12 07:44:56;;;;;;;18.08;3.28;;;;;;;;;;5042280;27;92540;-76
2022/06/12 07:47:24;;;;;;;19.92;3.80;;;;;;;;;;5055924;27;96706;-76
2022/06/12 07:49:51;;;;;;;24.67;4.53;;;;;;;;;;5052418;27;93184;-74
2022/06/12 07:52:25;;;;;;;18.77;3.88;;;;;;;;;;5052976;27;94016;-76
2022/06/12 07:54:52;;;;;;;14.07;3.22;;;;;;;;;;5050050;27;93064;-74
2022/06/12 07:57:19;;;;;;;21.02;5.07;;;;;;;;;;5037879;28;92384;-74
2022/06/12 07:59:45;;;;;;;15.15;3.42;;;;;;;;;;5054606;27;92554;-74
2022/06/12 08:02:11;;;;;;;23.58;4.22;;;;;;;;;;5056316;27;94155;-74
2022/06/12 08:04:38;;;;;;;10.98;3.17;;;;;;;;;;5056625;27;91757;-74
2022/06/12 08:07:04;;;;;;;25.38;4.30;;;;;;;;;;5057160;27;92573;-74
2022/06/12 08:09:30;;;;;;;22.23;3.95;;;;;;;;;;5056637;27;94479;-74
2022/06/12 08:11:57;;;;;;;20.05;3.53;;;;;;;;;;5053136;27;96447;-73
2022/06/12 08:14:24;;;;;;;13.65;3.33;;;;;;;;;;5077589;27;95612;-74
2022/06/12 08:16:50;;;;;;;20.75;3.97;;;;;;;;;;5064065;27;93431;-74
2022/06/12 08:22:03;;;;;;;22.23;3.55;;;;;;;;;;5056905;27;94437;-74
2022/06/12 08:24:29;;;;;;;20.58;4.15;;;;;;;;;;5057058;27;92343;-74
2022/06/12 08:26:56;;;;;;;17.10;4.10;;;;;;;;;;5056052;27;93156;-74
2022/06/12 08:29:23;;;;;;;16.30;3.67;;;;;;;;;;5057430;27;92730;-74
2022/06/12 08:31:52;;;;;;;11.18;3.17;;;;;;;;;;5057083;27;92482;-74
2022/06/12 08:34:22;;;;;;;19.00;4.38;;;;;;;;;;5056517;27;93018;-74
2022/06/12 08:36:53;;;;;;;16.75;3.88;;;;;;;;;;5054911;27;95920;-74
2022/06/12 08:39:19;;;;;;;;;;;;;;;;;;5059548;27;92349;-74
2022/06/12 08:41:50;;;;;;;23.02;3.42;;;;;;;;;;5056595;27;124254;-74
2022/06/12 08:44:21;;;;;;;10.77;2.90;;;;;;;;;;5057335;27;92297;-74
2022/06/12 08:46:55;;;;;;;21.73;3.80;;;;;;;;;;5056793;27;93413;-74
2022/06/12 08:49:27;;;;;;;17.92;4.30;;;;;;;;;;5037831;27;93264;-74
2022/06/12 08:52:13;;;;;;;20.17;3.97;;;;;;;;;;5036246;28;92428;-74
2022/06/12 08:54:57;;;;;;;15.32;3.90;;;;;;;;;;5036923;28;92899;-74
2022/06/12 08:57:33;;;;;;;11.85;3.05;;;;;;;;;;5052078;27;92368;-74
2022/06/12 09:00:08;;;;;;;14.52;2.90;;;;;;;;;;5055478;27;92359;-74
2022/06/12 09:02:36;;;;;;;11.75;3.40;;;;;;;;;;5057717;27;94822;-74
2022/06/12 09:05:04;;;;;;;18.30;3.45;;;;;;;;;;5056466;27;92927;-74
2022/06/12 09:07:38;;;;;;;15.90;3.38;;;;;;;;;;5054821;27;93041;-74
2022/06/12 09:10:07;;;;;;;14.00;3.03;;;;;;;;;;5056180;27;93108;-74
2022/06/12 09:12:36;;;;;;;13.88;2.72;;;;;;;;;;5035374;28;92390;-77
2022/06/12 09:15:21;;;;;;;9.35;2.60;;;;;;;;;;5053501;27;93193;-77
2022/06/12 09:18:07;;;;;;;14.18;2.60;;;;;;;;;;5057414;27;93800;-78
2022/06/12 09:20:42;;;;;;;6.60;2.35;;;;;;;;;;5077101;27;91758;-78
2022/06/12 09:23:22;;;;;;;8.30;2.40;;;;;;;;;;5066498;27;92484;-78
2022/06/12 09:25:51;;;;;;;9.23;2.33;;;;;;;;;;5057764;27;93708;-78
2022/06/12 09:28:20;;;;;;;13.38;2.35;;;;;;;;;;5050842;27;94855;-78
2022/06/12 09:30:48;;;;;;;14.13;2.50;;;;;;;;;;5052934;27;93260;-77
2022/06/12 09:33:14;;;;;;;12.88;2.95;;;;;;;;;;5036763;27;92528;-77
2022/06/12 09:35:58;;;;;;;17.25;3.40;;;;;;;;;;5063747;27;96009;-77
2022/06/12 09:38:31;;;;;;;9.88;2.28;;;;;;;;;;5046865;27;93513;-75
2022/06/12 09:41:04;;;;;;;11.23;3.13;;;;;;;;;;5046312;27;92541;-73
2022/06/12 09:43:45;;;;;;;11.07;2.15;;;;;;;;;;5054318;27;93138;-72
2022/06/12 09:46:30;;;;;;;7.68;2.35;;;;;;;;;;5050589;27;92682;-78
2022/06/12 09:48:56;;;;;;;15.65;3.55;;;;;;;;;;5057606;27;92440;-74
2022/06/12 09:51:26;;;;;;;13.30;2.80;;;;;;;;;;5036258;27;96220;-75
2022/06/12 09:53:52;;;;;;;11.85;3.40;;;;;;;;;;5033528;28;94867;-68
2022/06/12 09:56:24;;;;;;;11.00;2.92;;;;;;;;;;5034877;28;95616;-75
2022/06/12 09:58:59;;;;;;;11.55;2.67;;;;;;;;;;5043977;27;94532;-74
2022/06/12 10:01:28;;;;;;;15.40;3.28;;;;;;;;;;5052353;27;92540;-72
2022/06/12 10:03:59;;;;;;;8.23;2.53;;;;;;;;;;5054149;27;93125;-73
2022/06/12 10:06:26;;;;;;;9.38;2.67;;;;;;;;;;5047667;27;93440;-72
2022/06/12 10:08:59;;;;;;;11.35;2.40;;;;;;;;;;5039862;27;93166;-74
2022/06/12 10:11:29;;;;;;;13.38;2.97;;;;;;;;;;5055024;27;93056;-73
2022/06/12 10:13:58;;;;;;;11.25;3.10;;;;;;;;;;5048188;27;93976;-76
2022/06/12 10:16:33;;;;;;;9.00;2.47;;;;;;;;;;5054703;27;93921;-76
2022/06/12 10:19:32;;;;;;;8.88;2.00;;;;;;;;;;5053261;27;97391;-76
2022/06/12 10:22:01;;;;;;;14.20;2.50;;;;;;;;;;5046471;27;93041;-72
2022/06/12 10:24:27;;;;;;;9.93;2.17;;;;;;;;;;5073572;27;93356;-75
2022/06/12 10:27:20;;;;;;;7.22;2.20;;;;;;;;;;5071003;27;93702;-76
2022/06/12 10:29:56;;;;;;;9.07;2.63;;;;;;;;;;5067007;27;92559;-74
2022/06/12 10:32:26;;;;;;;11.82;2.75;;;;;;;;;;5074913;27;93177;-75
2022/06/12 10:34:56;;;;;;;7.10;1.92;;;;;;;;;;5055379;27;92518;-75
2022/06/12 10:37:24;;;;;;;10.15;2.15;;;;;;;;;;5052588;27;96026;-77
2022/06/12 10:40:00;;;;;;;8.10;2.65;;;;;;;;;;5053882;27;94027;-76
2022/06/12 10:42:39;;;;;;;13.82;3.05;;;;;;;;;;5081305;27;92536;-76
2022/06/12 10:45:16;;;;;;;9.47;2.27;;;;;;;;;;5062612;27;95623;-75
2022/06/12 10:47:44;;;;;;;8.40;2.47;;;;;;;;;;5075918;27;93666;-77
2022/06/12 10:50:16;;;;;;;11.23;2.42;;;;;;;;;;5076961;27;92485;-76
2022/06/12 10:53:15;;;;;;;11.93;2.47;;;;;;;;;;5073476;27;93312;-79
2022/06/12 10:55:51;;;;;;;14.75;2.33;;;;;;;;;;5043180;27;93427;-80
2022/06/12 10:58:36;;;;;;;5.82;2.35;;;;;;;;;;5072858;27;93671;-77
2022/06/12 11:01:10;;;;;;;10.55;2.60;;;;;;;;;;5074581;27;93769;-78
2022/06/12 11:03:47;;;;;;;10.05;2.45;;;;;;;;;;5076755;27;91739;-77
2022/06/12 11:06:24;;;;;;;8.80;2.53;;;;;;;;;;5058187;27;92894;-76
2022/06/12 11:09:02;;;;;;;9.70;2.42;;;;;;;;;;5076261;27;94441;-77
2022/06/12 11:11:58;;;;;;;12.38;2.60;;;;;;;;;;5076641;27;94876;-76
2022/06/12 11:14:30;;;;;;;12.13;2.53;;;;;;;;;;5076233;27;96673;-77
2022/06/12 11:17:15;;;;;;;9.13;2.50;;;;;;;;;;5077448;27;93426;-76
2022/06/12 11:19:52;;;;;;;11.40;2.85;;;;;;;;;;5093417;27;92590;-75
2022/06/12 11:22:37;;;;;;;12.98;2.92;;;;;;;;;;5068889;27;93450;-76
2022/06/12 11:25:12;;;;;;;7.13;2.40;;;;;;;;;;5057036;27;92517;-76
2022/06/12 11:27:56;;;;;;;8.48;2.38;;;;;;;;;;5064366;27;93329;-76
2022/06/12 11:30:35;;;;;;;10.02;2.03;;;;;;;;;;5074670;27;91709;-76
2022/06/12 11:33:20;;;;;;;6.60;2.25;;;;;;;;;;5056762;27;92408;-76
2022/06/12 11:35:58;;;;;;;11.23;2.00;;;;;;;;;;5055431;27;92858;-77
2022/06/12 11:38:43;;;;;;;6.60;2.13;;;;;;;;;;5053687;27;95934;-76
2022/06/12 11:41:18;;;;;;;6.70;1.80;;;;;;;;;;5056916;27;92444;-78
2022/06/12 11:44:04;;;;;;;11.77;1.88;;;;;;;;;;5060425;27;93218;-77
2022/06/12 11:46:43;;;;;;;11.40;2.35;;;;;;;;;;5054361;27;92830;-77
2022/06/12 11:49:18;;;;;;;6.78;2.20;;;;;;;;;;5060666;27;92821;-76
2022/06/12 11:52:02;;;;;;;10.30;2.50;;;;;;;;;;5045068;27;93420;-77
2022/06/12 11:54:50;;;;;;;6.30;1.80;;;;;;;;;;5054921;27;92675;-77
2022/06/12 11:57:19;;;;;;;10.27;2.05;;;;;;;;;;5058019;27;94278;-75
2022/06/12 11:59:48;;;;;;;9.73;2.25;;;;;;;;;;5055533;27;93535;-77
2022/06/12 12:02:20;;;;;;;6.65;1.70;;;;;;;;;;5056222;27;92544;-76
2022/06/12 12:04:49;;;;;;;9.48;1.85;;;;;;;;;;5054564;27;94809;-77
2022/06/12 12:07:17;;;;;;;4.95;1.33;;;;;;;;;;5055532;27;93581;-77
2022/06/12 12:09:52;;;;;;;6.55;1.50;;;;;;;;;;5054452;27;95908;-77
2022/06/12 12:12:21;;;;;;;3.25;1.25;;;;;;;;;;5068639;27;93222;-78
2022/06/12 12:14:48;;;;;;;6.65;1.30;;;;;;;;;;5054405;27;92501;-77
2022/06/12 12:17:18;;;;;;;11.10;1.73;;;;;;;;;;5057034;27;93178;-78
2022/06/12 12:19:46;;;;;;;8.83;1.87;;;;;;;;;;5062821;27;94884;-78
2022/06/12 12:22:19;;;;;;;7.57;1.73;;;;;;;;;;5053206;27;91772;-74
2022/06/12 12:24:47;;;;;;;13.13;2.03;;;;;;;;;;5052287;27;92573;-76
2022/06/12 12:27:30;;;;;;;7.15;1.30;;;;;;;;;;5063829;27;92489;-75
2022/06/12 12:29:58;;;;;;;2.55;1.05;;;;;;;;;;5060891;27;94901;-76
2022/06/12 12:32:24;;;;;;;5.45;1.50;;;;;;;;;;5038226;27;96010;-77
2022/06/12 12:34:52;;;;;;;4.63;1.58;;;;;;;;;;5054426;27;92465;-77
2022/06/12 12:43:19;;;;;;;5.00;1.10;;;;;;;;;;5053969;27;92554;-75
2022/06/12 12:45:45;;;;;;;4.10;1.40;;;;;;;;;;5055016;27;93046;-75
2022/06/12 12:48:13;;;;;;;4.20;1.45;;;;;;;;;;5037148;27;92692;-76
2022/06/12 12:50:44;;;;;;;5.18;1.38;;;;;;;;;;5058607;27;92519;-76
2022/06/12 12:53:27;;;;;;;5.50;1.52;;;;;;;;;;5041079;27;93721;-76
2022/06/12 12:56:05;;;;;;;7.85;1.30;;;;;;;;;;5045841;27;95349;-78
2022/06/12 12:58:33;;;;;;;12.85;1.42;;;;;;;;;;5054605;27;95636;-77
2022/06/12 13:01:02;;;;;;;2.72;1.10;;;;;;;;;;5056886;27;93743;-76
2022/06/12 13:03:31;;;;;;;12.40;2.33;;;;;;;;;;5038624;27;92455;-77
2022/06/12 13:06:02;;;;;;;4.50;1.23;;;;;;;;;;5076713;27;93546;-77
2022/06/12 13:08:47;;;;;;;4.22;1.42;;;;;;;;;;5063188;27;92781;-76
2022/06/12 13:11:22;;;;;;;10.82;1.30;;;;;;;;;;5054661;27;92803;-76
2022/06/12 13:13:49;;;;;;;5.90;1.40;;;;;;;;;;5040453;27;92856;-76
2022/06/12 13:16:23;;;;;;;6.07;1.63;;;;;;;;;;5047167;27;92474;-76
2022/06/12 13:19:04;;;;;;;3.33;1.35;;;;;;;;;;5058206;27;93299;-76
2022/06/12 13:21:38;;;;;;;7.72;1.70;;;;;;;;;;5032856;27;96044;-75
2022/06/12 13:24:09;;;;;;;9.65;1.38;;;;;;;;;;5049178;27;92501;-77
2022/06/12 13:26:37;;;;;;;3.97;1.13;;;;;;;;;;5036870;27;93363;-77
2022/06/12 13:29:04;;;;;;;6.97;1.42;;;;;;;;;;5036803;27;94172;-77
2022/06/12 13:31:33;;;;;;;5.22;1.42;;;;;;;;;;5035467;28;92604;-77
2022/06/12 13:34:03;;;;;;;6.68;2.28;;;;;;;;;;5035369;28;92488;-77
2022/06/12 13:36:35;;;;;;;4.00;1.50;;;;;;;;;;5039894;27;93825;-76
2022/06/12 13:39:21;;;;;;;9.35;1.60;;;;;;;;;;5051120;27;92956;-77
2022/06/12 13:41:52;;;;;;;13.40;2.28;;;;;;;;;;5031454;27;94780;-77
2022/06/12 13:44:20;;;;;;;4.50;1.45;;;;;;;;;;5053610;27;92549;-77
2022/06/12 13:46:46;;;;;;;4.15;1.63;;;;;;;;;;5048878;27;94888;-77
2022/06/12 13:49:21;;;;;;;5.88;1.27;;;;;;;;;;5053922;27;93528;-77
2022/06/12 13:51:54;;;;;;;2.53;0.80;;;;;;;;;;5053302;27;92577;-77
2022/06/12 13:54:21;;;;;;;4.93;1.05;;;;;;;;;;5052298;27;93301;-77
2022/06/12 13:57:00;;;;;;;5.18;1.20;;;;;;;;;;5037669;27;95281;-78
2022/06/12 13:59:29;;;;;;;5.13;1.20;;;;;;;;;;5057808;27;92379;-77
2022/06/12 14:02:05;;;;;;;5.43;1.30;;;;;;;;;;5054797;27;93831;-77
2022/06/12 14:04:32;;;;;;;4.75;1.40;;;;;;;;;;5054525;27;93358;-77
2022/06/12 14:06:59;;;;;;;3.20;1.13;;;;;;;;;;5056273;27;92744;-77
2022/06/12 14:09:28;;;;;;;4.97;1.10;;;;;;;;;;5052592;27;93460;-78
2022/06/12 14:11:55;;;;;;;1.92;0.82;;;;;;;;;;5054262;27;94835;-77
2022/06/12 14:14:21;;;;;;;8.70;0.98;;;;;;;;;;5066412;27;95558;-77
2022/06/12 14:16:47;;;;;;;2.17;1.00;;;;;;;;;;5057544;27;93619;-77
2022/06/12 14:19:23;;;;;;;5.90;1.30;;;;;;;;;;5047888;27;93891;-75
2022/06/12 14:21:58;;;;;;;4.90;1.00;;;;;;;;;;5057781;27;95511;-75
2022/06/12 14:24:26;;;;;;;4.60;0.95;;;;;;;;;;5058203;27;92608;-77
2022/06/12 14:26:54;;;;;;;9.60;1.25;;;;;;;;;;5058662;27;92968;-76
2022/06/12 14:29:35;;;;;;;2.45;1.00;;;;;;;;;;5058799;27;92977;-76
2022/06/12 14:32:11;;;;;;;2.20;1.00;;;;;;;;;;5055617;27;92625;-75
2022/06/12 14:34:58;;;;;;;7.05;1.45;;;;;;;;;;5054372;27;93140;-75
2022/06/12 14:37:26;;;;;;;5.15;1.20;;;;;;;;;;5038951;27;96011;-76
2022/06/12 14:39:53;;;;;;;5.22;1.10;;;;;;;;;;5051964;27;92445;-75
2022/06/12 14:42:21;;;;;;;3.78;1.27;;;;;;;;;;5056159;27;93412;-75
2022/06/12 14:44:48;;;;;;;3.83;1.00;;;;;;;;;;5070509;27;92624;-74
2022/06/12 14:47:14;;;;;;;3.10;1.10;;;;;;;;;;5052982;27;93149;-75
2022/06/12 14:49:41;;;;;;;4.60;0.90;;;;;;;;;;5049227;27;93494;-75
2022/06/12 14:52:07;;;;;;;5.78;1.50;;;;;;;;;;5034569;28;92454;-75
2022/06/12 14:54:33;;;;;;;9.38;2.30;;;;;;;;;;5034512;27;93175;-75
2022/06/12 14:57:00;;;;;;;9.02;1.98;;;;;;;;;;5053497;27;93235;-75
2022/06/12 14:59:27;;;;;;;7.00;2.08;;;;;;;;;;5061992;27;92561;-73
2022/06/12 15:01:54;;;;;;;12.82;2.33;;;;;;;;;;5052618;27;94830;-74
2022/06/12 15:04:20;;;;;;;9.52;2.22;;;;;;;;;;5053602;27;93541;-74
2022/06/12 15:06:47;;;;;;;10.65;2.10;;;;;;;;;;5052436;27;93056;-76
2022/06/12 15:09:13;;;;;;;10.82;2.30;;;;;;;;;;5051810;27;93606;-74
2022/06/12 15:11:40;;;;;;;8.75;2.55;;;;;;;;;;5054937;27;92463;-75
2022/06/12 15:14:09;;;;;;;10.95;2.70;;;;;;;;;;5051444;27;93338;-75